Time;durP1;ratioP1;P1;durP2;ratioP2;P2;SDS_P1;SDS_P2;PMS_P1;PMS_P2;Temp;Humidity;BMP_temperature;BMP_pressure;BME280_temperature;BME280_humidity;BME280_pressure;Samples;Min_cycle;Max_cycle;Signal;HPM_P1;HPM_P2
2022/05/19 00:02:09;;;;;;;;;9.25;9.25;;;;;24.97;55.10;100723.78;5037421;28;45347;-80
2022/05/19 00:04:34;;;;;;;;;11.00;11.00;;;;;24.96;55.37;100715.78;5037138;28;45329;-80
2022/05/19 00:07:00;;;;;;;;;11.00;11.00;;;;;24.96;55.59;100722.06;5033610;28;45986;-80
2022/05/19 00:09:27;;;;;;;;;12.25;11.00;;;;;24.94;55.45;100717.75;5021671;28;45289;-81
2022/05/19 00:11:54;;;;;;;;;12.25;10.50;;;;;24.94;55.31;100720.47;5017618;28;45389;-81
2022/05/19 00:14:20;;;;;;;;;11.50;11.00;;;;;24.90;55.79;100727.06;5017528;28;45577;-80
2022/05/19 00:16:45;;;;;;;;;10.25;10.25;;;;;24.91;55.85;100721.56;5016285;28;46098;-81
2022/05/19 00:19:12;;;;;;;;;9.50;9.50;;;;;24.93;55.83;100735.84;5017169;28;45467;-81
2022/05/19 00:21:38;;;;;;;;;9.75;9.25;;;;;24.92;55.60;100720.59;5016592;28;45469;-82
2022/05/19 00:24:04;;;;;;;;;11.00;11.00;;;;;24.93;55.92;100727.72;5023255;28;45528;-81
2022/05/19 00:26:30;;;;;;;;;11.75;11.50;;;;;24.92;55.97;100719.72;5034743;28;46774;-81
2022/05/19 00:28:55;;;;;;;;;10.00;8.25;;;;;24.83;56.02;100705.94;5036248;28;45315;-81
2022/05/19 00:31:21;;;;;;;;;11.00;11.00;;;;;24.77;56.22;100700.16;5036623;28;45320;-81
2022/05/19 00:33:46;;;;;;;;;11.75;11.75;;;;;24.74;56.12;100689.59;5037657;28;45591;-81
2022/05/19 00:36:15;;;;;;;;;11.75;11.75;;;;;24.79;56.16;100692.78;5029857;28;47331;-81
2022/05/19 00:38:47;;;;;;;;;11.50;11.25;;;;;24.68;56.36;100677.41;5023617;28;45399;-80
2022/05/19 00:41:14;;;;;;;;;11.00;11.00;;;;;24.74;56.07;100689.59;5022747;28;45483;-81
2022/05/19 00:43:43;;;;;;;;;12.75;12.50;;;;;24.57;56.54;100656.63;5021497;28;45264;-80
2022/05/19 00:46:24;;;;;;;;;10.00;10.00;;;;;24.73;56.73;100685.16;5020627;28;46395;-80
2022/05/19 00:49:02;;;;;;;;;9.50;9.50;;;;;24.63;56.90;100672.38;5017521;28;45329;-76
2022/05/19 00:51:36;;;;;;;;;12.75;12.25;;;;;24.67;56.97;100677.53;5016126;28;45555;-77
2022/05/19 00:54:05;;;;;;;;;11.00;11.00;;;;;24.62;56.86;100665.25;5034771;28;45361;-77
2022/05/19 00:56:36;;;;;;;;;15.00;12.00;;;;;24.59;56.90;100665.47;5025013;28;45543;-78
2022/05/19 00:59:10;;;;;;;;;12.25;12.25;;;;;24.54;56.97;100661.41;5028772;28;45388;-77
2022/05/19 01:01:39;;;;;;;;;9.75;8.00;;;;;24.53;56.93;100662.38;5027608;28;45576;-77
2022/05/19 01:04:36;;;;;;;;;10.00;10.00;;;;;24.53;57.18;100665.94;5017139;28;45624;-77
2022/05/19 01:07:16;;;;;;;;;13.00;13.00;;;;;24.51;57.19;100656.25;5018041;28;45412;-76
2022/05/19 01:09:42;;;;;;;;;13.50;13.50;;;;;24.43;57.99;100648.69;5019420;28;45411;-78
2022/05/19 01:12:09;;;;;;;;;13.00;13.00;;;;;24.44;57.42;100648.59;5017992;28;45407;-77
2022/05/19 01:14:35;;;;;;;;;14.00;12.00;;;;;24.43;57.74;100644.19;5018628;28;45509;-77
2022/05/19 01:17:02;;;;;;;;;14.25;13.50;;;;;24.41;57.99;100640.72;5029475;28;45910;-78
2022/05/19 01:19:39;;;;;;;;;11.75;10.75;;;;;24.40;58.09;100647.13;5036854;28;45569;-78
2022/05/19 01:22:32;;;;;;;;;11.75;11.50;;;;;24.37;57.91;100646.47;5030079;28;45355;-77
2022/05/19 01:25:07;;;;;;;;;12.75;12.00;;;;;24.33;58.25;100636.91;5031517;28;45472;-78
2022/05/19 01:27:34;;;;;;;;;10.50;10.50;;;;;24.32;58.53;100640.59;5035346;28;46315;-78
2022/05/19 01:30:00;;;;;;;;;15.00;14.00;;;;;24.30;57.71;100638.84;5037009;28;45336;-77
2022/05/19 01:32:30;;;;;;;;;13.50;10.50;;;;;24.27;58.74;100641.78;5023666;28;45483;-76
2022/05/19 01:34:58;;;;;;;;;13.50;12.25;;;;;24.23;58.72;100643.03;5040205;28;45321;-77
2022/05/19 01:37:24;;;;;;;;;13.00;10.25;;;;;24.24;58.76;100644.72;5038961;28;45344;-77
2022/05/19 01:39:54;;;;;;;;;11.00;11.00;;;;;24.24;58.53;100642.03;5036155;28;45304;-77
2022/05/19 01:42:38;;;;;;;;;11.75;11.00;;;;;24.22;59.20;100644.00;5017009;28;45526;-77
2022/05/19 01:45:24;;;;;;;;;12.50;12.50;;;;;24.19;58.70;100644.22;5016505;28;45454;-77
2022/05/19 01:48:09;;;;;;;;;13.75;13.00;;;;;24.13;59.25;100645.53;5016070;28;45410;-78
2022/05/19 01:50:44;;;;;;;;;12.00;12.00;;;;;24.11;58.91;100643.94;5017494;28;45551;-77
2022/05/19 01:53:25;;;;;;;;;14.00;12.75;;;;;24.13;58.89;100652.78;5016269;28;45502;-77
2022/05/19 01:56:01;;;;;;;;;15.50;12.50;;;;;24.06;59.52;100640.72;5015654;28;45547;-77
2022/05/19 01:58:29;;;;;;;;;11.50;11.50;;;;;24.07;59.29;100639.75;5022078;28;46821;-77
2022/05/19 02:00:59;;;;;;;;;10.50;10.25;;;;;24.03;59.27;100640.97;5032601;28;45522;-77
2022/05/19 02:03:39;;;;;;;;;12.75;12.25;;;;;24.02;59.99;100637.41;5018981;28;45452;-77
2022/05/19 02:06:17;;;;;;;;;12.00;11.50;;;;;24.03;59.76;100643.66;5021186;28;45461;-77
2022/05/19 02:08:49;;;;;;;;;12.50;10.50;;;;;23.99;59.75;100636.78;5015665;28;45395;-77
2022/05/19 02:11:25;;;;;;;;;14.00;13.75;;;;;23.93;59.56;100636.25;5019671;28;45471;-76
2022/05/19 02:13:54;;;;;;;;;15.00;14.75;;;;;23.95;60.23;100634.31;5018144;28;45569;-75
2022/05/19 02:16:21;;;;;;;;;13.75;13.75;;;;;23.95;60.23;100642.41;5035854;28;45516;-76
2022/05/19 02:18:49;;;;;;;;;11.25;11.00;;;;;23.93;60.29;100641.66;5033384;28;46456;-77
2022/05/19 02:21:17;;;;;;;;;12.00;12.00;;;;;23.93;60.10;100644.38;5014493;28;45355;-77
2022/05/19 02:23:43;;;;;;;;;12.75;11.75;;;;;23.91;59.85;100632.84;5016182;28;45395;-76
2022/05/19 02:26:09;;;;;;;;;13.75;13.00;;;;;23.91;59.94;100643.63;5015749;28;45347;-76
2022/05/19 02:28:38;;;;;;;;;12.75;11.75;;;;;23.93;60.68;100646.22;5015489;28;46020;-76
2022/05/19 02:31:04;;;;;;;;;13.50;13.50;;;;;23.87;60.38;100642.13;5017598;28;45764;-79
2022/05/19 02:33:29;;;;;;;;;10.75;10.75;;;;;23.86;60.29;100642.25;5019692;28;45901;-77
2022/05/19 02:35:55;;;;;;;;;15.25;13.50;;;;;23.88;60.39;100646.56;5019890;28;45490;-76
2022/05/19 02:38:22;;;;;;;;;12.25;12.25;;;;;23.85;60.38;100644.06;5015897;28;45475;-76
2022/05/19 02:40:48;;;;;;;;;12.25;11.50;;;;;23.86;60.82;100643.09;5015493;28;45734;-76
2022/05/19 02:43:15;;;;;;;;;12.75;12.75;;;;;23.80;60.49;100640.81;5014910;28;45404;-76
2022/05/19 02:45:41;;;;;;;;;11.25;11.25;;;;;23.80;60.37;100638.13;5015809;28;45741;-76
2022/05/19 02:48:08;;;;;;;;;15.00;15.00;;;;;23.81;61.00;100638.97;5015833;28;45456;-77
2022/05/19 02:50:34;;;;;;;;;16.25;16.25;;;;;23.79;60.89;100633.69;5032671;28;45395;-77
2022/05/19 02:52:59;;;;;;;;;13.50;12.25;;;;;23.76;60.94;100639.31;5047527;28;45510;-79
2022/05/19 02:55:25;;;;;;;;;12.00;10.75;;;;;23.78;61.25;100640.94;5027320;28;45408;-81
2022/05/19 02:57:51;;;;;;;;;11.50;11.00;;;;;23.76;61.44;100640.19;5035089;28;45516;-80
2022/05/19 03:00:20;;;;;;;;;13.50;13.50;;;;;23.75;61.31;100645.72;5023912;28;45483;-80
2022/05/19 03:02:46;;;;;;;;;12.00;12.00;;;;;23.74;60.97;100647.53;5030293;28;45392;-80
2022/05/19 03:05:15;;;;;;;;;17.00;14.75;;;;;23.70;61.50;100646.06;5022792;28;45336;-81
2022/05/19 03:07:40;;;;;;;;;14.75;14.75;;;;;23.67;61.28;100654.38;5018116;28;45380;-79
2022/05/19 03:10:06;;;;;;;;;11.75;11.75;;;;;23.67;61.25;100650.78;5028983;28;44793;-79
2022/05/19 03:12:32;;;;;;;;;11.00;11.00;;;;;23.65;61.46;100655.47;5045152;28;45411;-79
2022/05/19 03:14:57;;;;;;;;;16.25;14.00;;;;;23.63;61.30;100652.03;5037808;28;45590;-80
2022/05/19 03:17:24;;;;;;;;;16.75;12.75;;;;;23.62;61.65;100644.91;5036709;28;47851;-79
2022/05/19 03:19:53;;;;;;;;;18.50;16.50;;;;;23.64;62.21;100641.13;5034804;28;45411;-80
2022/05/19 03:22:18;;;;;;;;;14.00;13.00;;;;;23.56;61.75;100636.28;5037452;28;45484;-80
2022/05/19 03:24:44;;;;;;;;;16.00;13.00;;;;;23.60;61.67;100642.31;5036888;28;45500;-80
2022/05/19 03:27:09;;;;;;;;;12.00;12.00;;;;;23.58;61.88;100641.56;5037061;28;45402;-79
2022/05/19 03:29:34;;;;;;;;;11.00;11.00;;;;;23.56;62.01;100649.78;5019042;28;45299;-80
2022/05/19 03:32:00;;;;;;;;;12.00;12.00;;;;;23.56;61.83;100641.69;5020373;28;45273;-81
2022/05/19 03:34:25;;;;;;;;;12.50;12.50;;;;;23.54;62.08;100646.31;5021437;28;45391;-80
2022/05/19 03:36:51;;;;;;;;;14.25;13.50;;;;;23.53;62.13;100643.72;5015990;28;46084;-80
2022/05/19 03:39:16;;;;;;;;;14.75;13.50;;;;;23.52;62.39;100642.88;5017238;28;45470;-81
2022/05/19 03:41:42;;;;;;;;;16.00;14.00;;;;;23.49;62.42;100643.09;5016487;28;45422;-80
2022/05/19 03:44:07;;;;;;;;;13.25;13.25;;;;;23.48;62.19;100641.38;5032437;28;45582;-81
2022/05/19 03:46:33;;;;;;;;;14.00;14.00;;;;;23.47;62.24;100642.34;5038428;28;46153;-80
2022/05/19 03:48:58;;;;;;;;;15.00;14.25;;;;;23.45;62.57;100643.44;5024632;28;45481;-80
2022/05/19 03:51:27;;;;;;;;;16.50;13.25;;;;;23.43;62.72;100651.66;5035018;28;45492;-81
2022/05/19 03:53:53;;;;;;;;;13.75;13.75;;;;;23.40;62.63;100649.16;5025540;28;45298;-81
2022/05/19 03:56:20;;;;;;;;;17.25;16.75;;;;;23.37;62.78;100644.00;5017116;28;45383;-80
2022/05/19 03:58:46;;;;;;;;;14.25;14.25;;;;;23.36;62.44;100643.13;5021188;28;45410;-80
2022/05/19 04:01:11;;;;;;;;;14.50;12.75;;;;;23.35;63.25;100648.63;5021523;28;45348;-79
2022/05/19 04:03:36;;;;;;;;;13.50;12.75;;;;;23.34;62.73;100652.31;5023894;28;45315;-80
2022/05/19 04:06:02;;;;;;;;;14.00;11.75;;;;;23.30;62.75;100653.50;5018687;28;46245;-80
2022/05/19 04:08:27;;;;;;;;;14.00;12.00;;;;;23.28;62.98;100648.22;5026369;28;45473;-81
2022/05/19 04:10:54;;;;;;;;;14.50;13.50;;;;;23.30;62.54;100648.97;5024251;28;45611;-83
2022/05/19 04:13:20;;;;;;;;;13.50;12.00;;;;;23.31;63.03;100655.22;5017500;28;45426;-80
2022/05/19 04:15:45;;;;;;;;;18.25;15.00;;;;;23.29;62.93;100646.38;5017701;28;45356;-82
2022/05/19 04:18:11;;;;;;;;;17.00;13.25;;;;;23.29;62.73;100647.25;5017380;28;45415;-82
2022/05/19 04:20:36;;;;;;;;;15.00;12.75;;;;;23.26;62.94;100630.44;5016965;28;45399;-81
2022/05/19 04:23:02;;;;;;;;;17.25;15.50;;;;;23.31;62.55;100637.22;5016875;28;45484;-80
2022/05/19 04:25:29;;;;;;;;;13.50;13.50;;;;;23.26;62.68;100641.22;5016618;28;46038;-80
2022/05/19 04:27:55;;;;;;;;;12.00;12.00;;;;;23.32;62.49;100640.75;5021094;28;45340;-81
2022/05/19 04:30:21;;;;;;;;;13.00;13.00;;;;;23.33;62.95;100642.50;5037570;28;45472;-80
2022/05/19 04:32:47;;;;;;;;;14.50;12.75;;;;;23.33;62.72;100643.34;5042970;28;45417;-80
2022/05/19 04:35:14;;;;;;;;;16.75;15.25;;;;;23.37;62.35;100652.94;5020007;28;46230;-82
2022/05/19 04:37:39;;;;;;;;;18.25;15.25;;;;;23.40;62.63;100643.78;5015951;28;45355;-80
2022/05/19 04:40:06;;;;;;;;;15.00;14.25;;;;;23.40;62.23;100649.16;5026308;28;45296;-81
2022/05/19 04:42:31;;;;;;;;;15.00;14.00;;;;;23.44;62.43;100647.94;5035234;28;45386;-81
2022/05/19 04:44:57;;;;;;;;;14.00;12.75;;;;;23.49;61.73;100655.72;5036895;28;45427;-80
2022/05/19 04:47:22;;;;;;;;;16.75;14.25;;;;;23.47;62.14;100650.44;5017253;28;45320;-80
2022/05/19 04:49:48;;;;;;;;;15.25;12.50;;;;;23.50;62.04;100655.59;5018333;28;45344;-81
2022/05/19 04:52:13;;;;;;;;;8.25;8.25;;;;;23.54;62.06;100659.78;5019057;28;45554;-81
2022/05/19 04:54:39;;;;;;;;;14.75;13.50;;;;;23.42;61.80;100644.53;5019863;28;45396;-80
2022/05/19 04:57:06;;;;;;;;;11.75;11.50;;;;;23.56;61.44;100668.66;5036354;28;45408;-81
2022/05/19 04:59:32;;;;;;;;;14.00;14.00;;;;;23.47;61.14;100685.47;5036236;28;45334;-81
2022/05/19 05:01:58;;;;;;;;;15.00;14.75;;;;;23.58;61.33;100696.38;5040134;28;45554;-81
2022/05/19 05:04:26;;;;;;;;;16.00;13.75;;;;;23.65;60.93;100699.47;5036552;28;47036;-83
2022/05/19 05:06:52;;;;;;;;;14.75;12.75;;;;;23.66;60.48;100697.66;5037275;28;45484;-81
2022/05/19 05:09:17;;;;;;;;;11.75;11.75;;;;;23.73;60.90;100709.69;5032161;28;45376;-81
2022/05/19 05:11:43;;;;;;;;;14.50;14.00;;;;;23.75;60.18;100705.06;5028679;28;45355;-82
2022/05/19 05:14:08;;;;;;;;;18.00;17.00;;;;;23.67;60.65;100704.75;5035872;28;45417;-79
2022/05/19 05:16:34;;;;;;;;;16.50;14.75;;;;;23.79;60.38;100757.81;5024492;28;45312;-82
2022/05/19 05:18:59;;;;;;;;;15.50;14.25;;;;;23.78;60.48;100775.84;5027286;28;45455;-80
2022/05/19 05:21:25;;;;;;;;;13.00;13.00;;;;;23.81;61.33;100780.16;5037524;28;45451;-83
2022/05/19 05:23:50;;;;;;;;;14.25;14.25;;;;;23.77;60.82;100719.28;5034756;28;45572;-82
2022/05/19 05:26:15;;;;;;;;;12.25;11.25;;;;;23.84;61.20;100728.66;5040168;28;45491;-82
2022/05/19 05:28:41;;;;;;;;;13.00;13.00;;;;;23.88;60.37;100754.50;5034870;28;45561;-81
2022/05/19 05:31:08;;;;;;;;;15.25;13.00;;;;;23.92;60.54;100749.72;5043629;28;45470;-81
2022/05/19 05:33:33;;;;;;;;;12.00;12.00;;;;;23.97;59.86;100744.00;5039788;28;47604;-82
2022/05/19 05:35:59;;;;;;;;;11.50;11.00;;;;;23.93;59.20;100741.50;5037576;28;45471;-81
2022/05/19 05:38:24;;;;;;;;;14.50;12.25;;;;;24.06;59.40;100743.31;5033194;28;45620;-81
2022/05/19 05:40:50;;;;;;;;;11.50;11.50;;;;;24.07;59.11;100748.59;5017055;28;45458;-76
2022/05/19 05:43:18;;;;;;;;;13.75;11.25;;;;;24.07;58.76;100745.03;5016993;28;45376;-80
2022/05/19 05:45:46;;;;;;;;;12.75;12.75;;;;;24.04;58.71;100745.25;5015473;28;45411;-80
2022/05/19 05:48:12;;;;;;;;;12.25;12.25;;;;;24.11;58.34;100749.22;5018736;28;45510;-78
2022/05/19 05:50:38;;;;;;;;;14.50;12.75;;;;;24.11;58.48;100749.22;5026230;28;45458;-79
2022/05/19 05:53:05;;;;;;;;;11.75;11.00;;;;;24.15;58.59;100750.72;5015678;28;45948;-79
2022/05/19 05:55:30;;;;;;;;;3.75;3.75;;;;;24.18;58.56;100755.88;5015943;28;45339;-77
2022/05/19 05:57:56;;;;;;;;;13.75;12.50;;;;;24.20;58.46;100756.66;5020358;28;45592;-78
2022/05/19 06:00:22;;;;;;;;;11.25;11.25;;;;;24.24;58.28;100750.03;5022259;28;45367;-78
2022/05/19 06:02:49;;;;;;;;;13.25;13.00;;;;;24.34;58.19;100735.81;5016164;28;46338;-78
2022/05/19 06:05:15;;;;;;;;;11.50;11.25;;;;;24.37;57.81;100725.69;5015903;28;45469;-79
2022/05/19 06:07:41;;;;;;;;;14.25;14.25;;;;;24.44;57.92;100731.47;5015698;28;45509;-77
2022/05/19 06:10:09;;;;;;;;;13.75;12.75;;;;;24.51;57.75;100732.72;5033265;28;45457;-78
2022/05/19 06:12:35;;;;;;;;;11.50;9.75;;;;;24.62;57.50;100732.78;5036421;28;45958;-77
2022/05/19 06:15:00;;;;;;;;;13.25;12.75;;;;;24.72;57.29;100746.47;5035978;28;45491;-78
2022/05/19 06:17:25;;;;;;;;;11.50;11.50;;;;;24.75;57.11;100748.03;5035684;28;45819;-78
2022/05/19 06:19:51;;;;;;;;;14.00;13.50;;;;;24.81;56.79;100751.16;5034041;28;45283;-82
2022/05/19 06:22:17;;;;;;;;;12.25;11.00;;;;;24.87;56.44;100743.53;5036266;28;45430;-79
2022/05/19 06:24:43;;;;;;;;;13.00;12.00;;;;;24.98;56.57;100740.88;5036746;28;45453;-77
2022/05/19 06:27:09;;;;;;;;;12.00;12.00;;;;;25.06;55.90;100749.22;5038694;28;45485;-79
2022/05/19 06:29:34;;;;;;;;;16.00;14.75;;;;;25.05;56.17;100752.06;5036568;28;45363;-78
2022/05/19 06:32:01;;;;;;;;;12.50;11.25;;;;;25.12;56.08;100748.75;5034496;28;47138;-81
2022/05/19 06:34:29;;;;;;;;;12.50;12.50;;;;;25.19;56.05;100731.06;5024441;28;45456;-79
2022/05/19 06:36:56;;;;;;;;;8.75;8.75;;;;;25.31;55.36;100731.97;5027415;28;45841;-79
2022/05/19 06:39:21;;;;;;;;;12.25;12.25;;;;;25.32;55.21;100730.13;5021422;28;45396;-79
2022/05/19 06:42:02;;;;;;;;;13.25;11.75;;;;;25.43;55.49;100735.53;5028948;28;46041;-81
2022/05/19 06:44:37;;;;;;;;;14.25;13.00;;;;;25.56;54.43;100748.94;5034338;28;45390;-81
2022/05/19 06:47:03;;;;;;;;;14.00;13.50;;;;;25.66;54.90;100754.44;5025340;28;45482;-82
2022/05/19 06:49:29;;;;;;;;;13.50;12.25;;;;;25.63;55.38;100750.16;5035048;28;45495;-82
2022/05/19 06:51:55;;;;;;;;;11.75;10.75;;;;;25.66;55.07;100763.44;5032540;28;45500;-81
2022/05/19 06:54:21;;;;;;;;;13.25;12.75;;;;;25.63;55.10;100752.88;5032292;28;45542;-78
2022/05/19 06:56:49;;;;;;;;;15.00;15.00;;;;;25.70;54.79;100756.78;5019890;28;45625;-78
2022/05/19 06:59:16;;;;;;;;;17.25;14.75;;;;;25.73;54.71;100757.53;5033836;28;45556;-78
2022/05/19 07:01:44;;;;;;;;;18.00;17.00;;;;;25.68;55.16;100749.78;5030789;28;45694;-78
2022/05/19 07:04:09;;;;;;;;;14.50;13.50;;;;;25.67;54.81;100753.47;5024342;28;45508;-79
2022/05/19 07:06:34;;;;;;;;;17.25;14.75;;;;;25.67;54.62;100765.16;5030463;28;45560;-75
2022/05/19 07:09:00;;;;;;;;;12.00;12.00;;;;;25.70;54.65;100764.03;5034386;28;45415;-78
2022/05/19 07:11:28;;;;;;;;;5.75;4.25;;;;;25.77;54.80;100767.97;5031240;28;46047;-77
2022/05/19 07:13:56;;;;;;;;;17.75;14.50;;;;;25.83;54.36;100763.94;5032768;28;45529;-78
2022/05/19 07:16:21;;;;;;;;;18.00;16.75;;;;;25.91;54.44;100771.41;5029976;28;45497;-77
2022/05/19 07:18:47;;;;;;;;;14.00;13.50;;;;;26.02;54.04;100764.16;5032956;28;45563;-77
2022/05/19 07:21:12;;;;;;;;;13.00;13.00;;;;;26.04;53.85;100756.78;5030935;28;45535;-77
2022/05/19 07:23:39;;;;;;;;;14.25;14.25;;;;;26.11;53.42;100761.69;5033018;28;45369;-77
2022/05/19 07:26:06;;;;;;;;;15.75;14.00;;;;;26.15;53.30;100768.56;5027464;28;45337;-77
2022/05/19 07:28:31;;;;;;;;;12.00;12.00;;;;;26.25;53.41;100761.38;5034763;28;45454;-76
2022/05/19 07:30:56;;;;;;;;;12.75;12.75;;;;;26.27;53.21;100751.31;5035924;28;45831;-81
2022/05/19 07:33:22;;;;;;;;;16.00;15.75;;;;;26.52;52.75;100760.06;5022843;28;45469;-79
2022/05/19 07:35:49;;;;;;;;;12.00;12.00;;;;;26.77;51.88;100765.16;5018625;28;45412;-81
2022/05/19 07:38:15;;;;;;;;;20.75;19.50;;;;;27.18;51.50;100786.97;5035261;28;45557;-80
2022/05/19 07:40:42;;;;;;;;;17.25;15.75;;;;;27.97;49.98;100778.22;5028995;28;45652;-80
2022/05/19 07:45:51;;;;;;;;;18.75;17.75;;;;;29.36;48.51;100767.22;5028798;28;45537;-77
2022/05/19 07:48:17;;;;;;;;;19.00;15.25;;;;;30.33;45.31;100762.28;5015800;28;45402;-77
2022/05/19 07:50:42;;;;;;;;;16.00;15.00;;;;;31.16;42.89;100771.03;5032863;28;46531;-76
2022/05/19 07:53:09;;;;;;;;;19.00;19.00;;;;;31.89;42.13;100771.59;5032097;28;45429;-78
2022/05/19 07:55:34;;;;;;;;;26.00;23.00;;;;;32.74;40.35;100776.94;5032839;28;45400;-79
2022/05/19 07:58:00;;;;;;;;;19.00;18.00;;;;;33.26;40.56;100781.16;5031491;28;45375;-79
2022/05/19 08:00:26;;;;;;;;;14.00;12.00;;;;;34.17;38.39;100778.94;5028191;28;46047;-78
2022/05/19 08:02:51;;;;;;;;;17.00;15.00;;;;;34.51;36.61;100791.44;5031046;28;45422;-77
2022/05/19 08:05:16;;;;;;;;;14.25;12.50;;;;;35.19;35.98;100788.78;5031368;28;45497;-79
2022/05/19 08:07:42;;;;;;;;;15.50;14.25;;;;;35.99;34.90;100791.88;5018204;28;45433;-77
2022/05/19 08:10:26;;;;;;;;;13.25;12.50;;;;;36.45;33.89;100804.47;5015342;28;45408;-77
2022/05/19 08:15:40;;;;;;;;;13.75;13.75;;;;;37.59;32.31;100792.47;5029634;28;45370;-77
2022/05/19 08:18:20;;;;;;;;;12.50;12.50;;;;;38.14;31.49;100811.00;5023009;28;45423;-81
2022/05/19 08:20:58;;;;;;;;;11.25;11.25;;;;;38.00;30.23;100826.63;5023618;28;45479;-76
2022/05/19 08:23:36;;;;;;;;;12.00;12.00;;;;;37.93;30.26;100818.34;5032602;28;45322;-77
2022/05/19 08:26:03;;;;;;;;;10.00;10.00;;;;;38.17;30.55;100827.13;5033165;28;45425;-78
2022/05/19 08:28:29;;;;;;;;;12.50;12.50;;;;;38.28;29.97;100823.81;5026387;28;45422;-77
2022/05/19 08:31:07;;;;;;;;;14.50;14.00;;;;;38.54;29.56;100824.94;5014327;28;46539;-76
2022/05/19 08:33:34;;;;;;;;;11.75;10.75;;;;;38.24;29.68;100835.47;5018165;28;45576;-75
2022/05/19 08:35:59;;;;;;;;;12.75;12.50;;;;;38.09;30.27;100839.19;5027156;28;45447;-76
2022/05/19 08:38:25;;;;;;;;;13.50;12.75;;;;;37.85;30.58;100848.84;5013895;28;45550;-77
2022/05/19 08:41:03;;;;;;;;;11.50;11.50;;;;;37.48;30.94;100861.97;5013472;28;45520;-77
2022/05/19 08:43:57;;;;;;;;;15.00;13.75;;;;;36.66;31.72;100890.84;5012688;28;45435;-76
2022/05/19 08:46:33;;;;;;;;;14.00;12.00;;;;;36.01;32.87;100888.75;5021860;28;45411;-76
2022/05/19 08:49:04;;;;;;;;;12.25;11.25;;;;;35.51;33.11;100893.06;5011825;28;45452;-77
2022/05/19 08:51:41;;;;;;;;;10.00;10.00;;;;;34.97;33.77;100891.25;5011899;28;46271;-75
2022/05/19 08:54:09;;;;;;;;;12.00;12.00;;;;;34.88;33.66;100894.09;5013497;28;45336;-75
2022/05/19 08:56:41;;;;;;;;;10.25;10.25;;;;;34.67;33.63;100902.94;5010351;28;45527;-76
2022/05/19 08:59:25;;;;;;;;;11.50;10.75;;;;;34.66;34.22;100893.00;5030579;28;45592;-77
2022/05/19 09:01:54;;;;;;;;;8.75;8.75;;;;;34.70;32.49;100897.09;5014456;28;46203;-77
2022/05/19 09:04:44;;;;;;;;;8.00;8.00;;;;;35.18;32.17;100916.16;5031316;28;45475;-76
2022/05/19 09:10:40;;;;;;;;;7.25;7.25;;;;;35.21;32.23;100920.41;5033530;28;45497;-75
2022/05/19 09:13:05;;;;;;;;;9.25;9.25;;;;;35.02;31.99;100927.28;5025547;28;47061;-77
2022/05/19 09:15:33;;;;;;;;;9.00;9.00;;;;;34.90;33.11;100924.09;5029921;28;45400;-76
2022/05/19 09:17:58;;;;;;;;;8.00;7.00;;;;;34.74;32.32;100924.16;5014574;28;45538;-76
2022/05/19 09:20:35;;;;;;;;;8.00;6.25;;;;;34.85;32.09;100937.50;5024337;28;45555;-77
2022/05/19 09:23:04;;;;;;;;;6.25;6.25;;;;;34.74;31.63;100952.47;5033429;28;46281;-76
2022/05/19 09:25:32;;;;;;;;;3.00;3.00;;;;;34.73;32.05;100956.25;5036705;28;45597;-77
2022/05/19 09:28:01;;;;;;;;;7.00;7.00;;;;;34.64;31.17;100960.91;5033901;28;45481;-77
2022/05/19 09:30:47;;;;;;;;;5.75;5.75;;;;;34.26;32.37;100970.88;5031675;28;45638;-77
2022/05/19 09:33:19;;;;;;;;;7.50;6.00;;;;;33.94;32.54;100967.16;5035554;28;45530;-81
2022/05/19 09:35:49;;;;;;;;;8.25;6.25;;;;;33.74;32.56;100956.56;5032728;28;45742;-77
2022/05/19 09:38:35;;;;;;;;;9.00;9.00;;;;;33.82;32.60;100974.88;5017097;28;45525;-77
2022/05/19 09:41:05;;;;;;;;;11.00;10.50;;;;;33.48;32.12;100989.63;5023795;28;45424;-78
2022/05/19 09:43:36;;;;;;;;;11.00;10.75;;;;;32.96;33.23;100996.19;5035292;28;45448;-78
2022/05/19 09:46:14;;;;;;;;;11.50;11.50;;;;;32.96;33.14;100985.22;5034501;28;45424;-76
2022/05/19 09:49:01;;;;;;;;;13.00;13.00;;;;;33.39;32.06;101007.94;5017387;28;45435;-79
2022/05/19 09:51:42;;;;;;;;;12.25;11.75;;;;;33.83;31.50;101012.22;5028526;28;45585;-79
2022/05/19 09:54:12;;;;;;;;;11.75;11.75;;;;;34.02;31.32;101021.94;5035872;28;46152;-77
2022/05/19 09:56:44;;;;;;;;;12.75;12.75;;;;;34.08;30.70;101015.78;5027796;28;45530;-78
2022/05/19 09:59:20;;;;;;;;;11.25;11.25;;;;;34.29;31.11;101030.84;5016610;28;45501;-80
2022/05/19 10:01:48;;;;;;;;;13.75;12.00;;;;;34.36;29.89;101015.38;5032956;28;45470;-79
2022/05/19 10:04:19;;;;;;;;;11.75;11.75;;;;;34.76;29.61;101032.75;5032686;28;46413;-77
2022/05/19 10:06:57;;;;;;;;;9.00;9.00;;;;;34.52;29.74;101039.16;5029506;28;45438;-78
2022/05/19 10:09:33;;;;;;;;;8.25;7.25;;;;;34.10;30.06;101021.94;5033674;28;45503;-78
2022/05/19 10:12:10;;;;;;;;;10.50;9.75;;;;;33.57;30.93;101020.56;5033343;28;45432;-78
2022/05/19 10:14:35;;;;;;;;;7.00;6.00;;;;;33.22;32.19;101012.53;5033048;28;46872;-80
2022/05/19 10:17:26;;;;;;;;;9.00;9.00;;;;;32.98;32.18;101042.53;5026132;28;45336;-79
2022/05/19 10:20:02;;;;;;;;;9.00;8.00;;;;;32.87;31.86;101055.53;5017465;28;45526;-80
2022/05/19 10:22:37;;;;;;;;;6.75;6.75;;;;;32.63;32.16;101061.72;5017863;28;45612;-81
2022/05/19 10:25:38;;;;;;;;;4.25;4.25;;;;;32.91;31.03;101075.19;5020800;28;45516;-81
2022/05/19 10:31:37;;;;;;;;;5.00;5.00;;;;;33.21;30.35;101083.88;5037068;28;45458;-83
2022/05/19 10:34:31;;;;;;;;;4.50;4.50;;;;;33.42;30.13;101051.41;5033662;28;45394;-81
2022/05/19 10:37:06;;;;;;;;;1.00;1.00;;;;;33.34;29.26;101056.00;5027817;28;45293;-82
2022/05/19 10:40:03;;;;;;;;;3.25;3.25;;;;;32.94;29.75;101058.44;5037671;28;45338;-79
2022/05/19 10:43:10;;;;;;;;;4.00;4.00;;;;;32.99;29.68;101069.72;5026242;28;45273;-79
2022/05/19 10:45:47;;;;;;;;;3.00;3.00;;;;;33.06;29.44;101059.84;5024335;28;45462;-83
2022/05/19 10:48:31;;;;;;;;;2.50;2.50;;;;;33.28;29.55;101060.25;5025538;28;46394;-81
2022/05/19 10:51:05;;;;;;;;;0.00;0.00;;;;;33.59;29.15;101057.75;5037464;28;45556;-80
2022/05/19 10:53:54;;;;;;;;;4.00;3.50;;;;;33.44;30.36;101059.44;5030969;28;45379;-77
2022/05/19 10:56:44;;;;;;;;;3.00;3.00;;;;;33.42;29.30;101070.56;5033083;28;45493;-80
2022/05/19 10:59:24;;;;;;;;;2.00;2.00;;;;;33.40;29.45;101064.38;5027622;28;47292;-77
2022/05/19 11:02:05;;;;;;;;;2.75;2.75;;;;;33.28;29.17;101065.72;5038996;28;45510;-80
2022/05/19 11:05:04;;;;;;;;;3.25;3.00;;;;;33.10;31.93;101063.09;5028564;28;45502;-80
2022/05/19 11:07:52;;;;;;;;;3.25;3.25;;;;;33.24;30.08;101048.81;5024699;28;45558;-79
2022/05/19 11:10:58;;;;;;;;;3.00;3.00;;;;;33.22;29.24;101055.47;5018005;28;45348;-80
2022/05/19 11:14:06;;;;;;;;;4.00;2.25;;;;;32.87;29.55;101049.16;4997635;28;45597;-77
2022/05/19 11:16:49;;;;;;;;;3.00;2.00;;;;;32.74;30.34;101047.75;5002908;28;45404;-81
2022/05/19 11:19:26;;;;;;;;;3.50;3.00;;;;;32.68;30.36;101053.88;5001485;28;45515;-81
2022/05/19 11:21:56;;;;;;;;;1.25;1.25;;;;;32.50;30.30;101058.56;5012164;28;46129;-80
2022/05/19 11:24:28;;;;;;;;;2.00;2.00;;;;;32.32;30.19;101047.69;5017088;28;45808;-80
2022/05/19 11:27:04;;;;;;;;;2.00;2.00;;;;;31.94;30.50;101049.81;5016414;28;45469;-81
2022/05/19 11:29:43;;;;;;;;;2.00;2.00;;;;;32.15;29.69;101057.66;5013772;28;45459;-82
2022/05/19 11:32:13;;;;;;;;;2.00;2.00;;;;;32.74;29.56;101042.28;5014238;28;46179;-80
2022/05/19 11:35:05;;;;;;;;;0.75;0.75;;;;;33.09;28.60;101040.34;5014260;28;45483;-81
2022/05/19 11:37:46;;;;;;;;;2.50;2.50;;;;;33.22;29.06;101034.44;5011822;28;45559;-80
2022/05/19 11:40:14;;;;;;;;;3.00;3.00;;;;;33.51;27.51;101033.09;4998567;28;45400;-81